Idaho Springs, CO (80452)

6:41 PM MDT on August 19, 2017 (GMT -0600)
Gregory Gulch | | Change Station

Elev 8297 ft 39.80 °N, 105.50 °W | Updated 5 minutes ago

Partly Cloudy
Partly Cloudy
73.6 °F
Feels Like 76 °F
N
3.2
Wind Variable Wind from WNW

Today
High -- | Low -- °F
--% Chance of Precip.
Yesterday
High -- | Low -- °F
Precip. -- in
Pressure 30.06 in
Visibility 40.0 miles
Clouds Few 10000 ft
Scattered Clouds 14000 ft
Mostly Cloudy 20000 ft
Heat Index 76 °F
Dew Point 36 °F
Humidity 25%
Rainfall 0.00 in
Snow Depth Not available.
6:18 AM 7:52 PM
Waning Crescent, 4% visible
METAR KBJC 192355Z 22008KT 40SM VCSH FEW100 SCT140 BKN200 28/04 A3006 RMK VIRGA ALQDS
Pressure 30.06 in
Visibility 40.0 miles
Clouds Few 10000 ft
Scattered Clouds 14000 ft
Mostly Cloudy 20000 ft
Heat Index 76 °F
Dew Point 36 °F
Humidity 25%
Rainfall 0.00 in
Snow Depth Not available.
6:18 AM 7:52 PM
Waning Crescent, 4% visible
METAR KBJC 192355Z 22008KT 40SM VCSH FEW100 SCT140 BKN200 28/04 A3006 RMK VIRGA ALQDS

Get Severe Weather Alerts

Thanks for signing up!

Be on the lookout for a verification email in your inbox.

You'll start receiving the daily forecast at 6 AM.

×

10-Day Weather Forecast

Almanac

Astronomy

Aug. 19, 2017 Rise Set
Actual Time
Civil Twilight
Nautical Twilight
Astronomical Twilight
Moon
Length of Visible Light
Length of Day
Tomorrow will be .
, % of the Moon is Illuminated

Today's Extremes

State Highs State Lows

Community

WunderPhotos

Category 6

Welcome to Category 6. This is the collective home for Weather Underground's featured writeups by Dr. Jeff Masters (right), Bob Henson (left), Chris Burt, and other regular contributors.

Nearby

Air Quality

  Air Quality AQ Index Pollutant
Not available.

Snow Depth

Station Depth Elevation

Earthquake Activity

City Distance Mag. Time & Date
Minimum magnitude displayed is 2.5.

Coastal Water Temperatures

Place Temperature

Stations

Nearby Weather Stations

Station Location Temp. Windchill Dew Point Humidity Wind Precip. Elev Updated Type
                   

Watches & Warnings

There are currently no watches in effect.